< Cyclone 196711 1967 Season Cyclone 196713 >
Cyclone 196712 (DULCIE)
General InformationTrack Information on Google Maps || ResourceGoogle EarthGE AnimationAtom FeedGeoJSON
Detalied Best Track (Time Zone = UTC)
Year Month Day Hour Lat. Long. Pressure (hPa) Wind (kt) Class Image Chart
1967 3 13 02 -14.9 156.5 1000 0 0 -- --
1967 3 13 05 -15.2 155.7 998 0 0 -- --
1967 3 13 08 -15.7 155.2 998 0 0 -- --
1967 3 13 11 -16.2 154.8 998 0 0 -- --
1967 3 13 14 -16.8 154.5 998 0 0 -- --
1967 3 13 17 -17.5 154.3 998 0 0 -- --
1967 3 13 20 -17.9 154.2 998 0 0 -- --
1967 3 13 23 -18.2 154.2 998 0 0 -- --
1967 3 14 02 -18.5 154.4 998 0 0 -- --
1967 3 14 05 -18.7 154.6 996 0 0 -- --
1967 3 14 08 -19.1 154.7 996 0 0 -- --
1967 3 14 11 -19.3 155.0 996 0 0 -- --
1967 3 14 14 -19.5 155.2 996 0 0 -- --
1967 3 14 17 -19.7 155.3 996 0 0 -- --
1967 3 14 20 -19.9 155.6 996 0 0 -- --
1967 3 14 23 -20.1 155.8 996 0 0 -- --
1967 3 15 02 -20.3 156.1 996 0 0 -- --
1967 3 15 05 -20.6 156.3 996 0 0 -- --
1967 3 15 08 -20.7 156.5 996 0 0 -- --
1967 3 15 11 -21.0 156.8 996 0 0 -- --
1967 3 15 14 -21.2 156.9 996 0 0 -- --
1967 3 15 17 -21.4 157.1 996 0 0 -- --
1967 3 15 20 -21.7 157.3 996 0 0 -- --
1967 3 15 23 -21.9 157.5 998 0 0 -- --
1967 3 16 02 -22.2 157.7 998 0 0 -- --
1967 3 16 05 -22.6 158.2 998 0 0 -- --
1967 3 16 08 -23.1 158.2 998 0 0 -- --
1967 3 16 11 -23.6 159.3 998 0 0 -- --
1967 3 16 14 -24.1 159.7 998 0 0 -- --
1967 3 16 17 -24.7 160.3 1000 0 0 -- --
1967 3 16 20 -25.3 160.8 1000 0 0 -- --
1967 3 16 23 -25.9 161.5 1000 0 0 -- --
1967 3 17 02 -26.6 162.0 1000 0 0 -- --
1967 3 17 05 -27.2 162.3 1000 0 0 -- --
1967 3 17 08 -27.9 163.0 1000 0 0 -- --
< Cyclone 196711 1967 Season Cyclone 196713 >

Help